Harrisville, Michigan
Current Conditions -  °F | °C
As of 2:14 AM on Monday 24 Nov 2014 (Local Time) from KOSC Reporting Station
Moderate Rain Moderate Rain  
Wind Chill: 38°   Ceiling: 400
Heat Index: 45°   Visibility: 5mi
Dew Point: 45°   Wind: 14mph
Humidity: 99%   Direction: 130°SE
Pressure: 29.08"   Gusts: 21mph
Location:  44.66°N, 83.29°W
Report Text: KOSC 240714Z AUTO 13012G18KT 5SM RA OVC004 07/07 A2908 RMK AO2 P0004 T00710070
Loading
Personal Weather Stations






























Interactive Weather Map New forecast layout! Learn more

10-Day Weather Forecast

Advertisements
Track Severe Weather on mobile